createdAt,value
2023-01-04T06:42:40.763Z,15.13
2023-01-04T06:47:44.656Z,14.97
2023-01-04T06:52:48.607Z,15.90
2023-01-04T06:57:57.651Z,20.27
2023-01-04T07:03:14.299Z,20.57
2023-01-04T07:08:20.351Z,16.73
2023-01-04T07:13:24.682Z,16.20
2023-01-04T07:18:29.134Z,15.53
2023-01-04T07:23:32.892Z,18.63
2023-01-04T07:28:54.835Z,19.50
2023-01-04T07:33:59.857Z,20.23
2023-01-04T07:39:04.028Z,20.90
2023-01-04T07:44:09.233Z,20.37
2023-01-04T07:49:17.390Z,22.50
2023-01-04T07:54:22.139Z,22.67
2023-01-04T07:59:25.894Z,22.67
2023-01-04T08:04:34.550Z,24.60
2023-01-04T08:09:39.169Z,25.00
2023-01-04T08:14:43.143Z,27.40
2023-01-04T08:19:47.813Z,27.27
2023-01-04T08:24:51.615Z,29.07
2023-01-04T08:29:55.444Z,22.57
2023-01-04T08:34:59.207Z,26.90
2023-01-04T08:40:03.457Z,28.37
2023-01-04T08:45:08.293Z,28.43
2023-01-04T08:50:12.068Z,25.77
2023-01-04T08:55:23.006Z,25.73
2023-01-04T09:00:28.367Z,27.37
2023-01-04T09:05:33.507Z,22.67
2023-01-04T09:10:39.579Z,21.90
2023-01-04T09:15:43.749Z,24.47
2023-01-04T09:20:47.147Z,22.17
2023-01-04T09:25:51.605Z,19.83
2023-01-04T09:30:55.016Z,19.50
2023-01-04T09:36:03.249Z,20.27
2023-01-04T09:41:38.297Z,16.50
2023-01-04T09:47:12.048Z,16.70
2023-01-04T09:52:19.704Z,17.17
2023-01-04T09:57:37.269Z,17.47
2023-01-04T10:02:53.979Z,17.43
2023-01-04T10:08:03.916Z,15.77
2023-01-04T10:13:32.660Z,16.27
2023-01-04T10:20:08.030Z,20.30
2023-01-04T10:24:22.873Z,16.13
2023-01-04T10:29:29.541Z,19.40
2023-01-04T10:34:39.794Z,17.73
2023-01-04T10:39:45.547Z,18.53
2023-01-04T15:09:22.145Z,6.10
2023-01-04T15:14:26.271Z,6.90
2023-01-04T15:19:37.327Z,7.50
2023-01-04T15:24:43.023Z,7.47
2023-01-04T15:29:46.810Z,7.40
2023-01-04T15:34:52.120Z,6.63
2023-01-04T15:40:02.647Z,7.27
2023-01-04T15:45:07.537Z,7.17
2023-01-04T15:50:11.181Z,8.07
2023-01-04T15:55:15.247Z,7.70
2023-01-04T16:00:19.147Z,7.30
2023-01-04T16:05:24.018Z,6.07
2023-01-04T16:10:29.056Z,7.37
2023-01-04T16:15:33.184Z,7.07
2023-01-04T16:20:36.769Z,7.37
2023-01-04T16:25:48.909Z,7.30
2023-01-04T16:30:58.850Z,7.30
2023-01-04T16:36:05.791Z,7.43
2023-01-04T16:41:15.468Z,8.07
2023-01-04T16:46:25.314Z,6.40
2023-01-04T16:51:40.442Z,8.67
2023-01-04T16:56:45.806Z,8.30
2023-01-04T17:01:57.298Z,8.23
2023-01-04T17:24:25.192Z,7.53
2023-01-04T17:29:39.472Z,7.40
2023-01-04T17:34:45.362Z,5.93
2023-01-04T17:39:49.304Z,7.50
2023-01-04T17:44:54.866Z,7.47
2023-01-04T17:50:01.627Z,7.03
2023-01-04T17:55:07.459Z,7.57
2023-01-04T18:00:15.244Z,6.67
2023-01-04T18:05:26.222Z,5.90
2023-01-04T18:10:41.250Z,8.20
2023-01-04T18:16:18.479Z,8.10
2023-01-04T18:21:28.490Z,7.77
2023-01-04T18:26:53.450Z,7.53
2023-01-04T18:32:04.276Z,6.60
2023-01-04T18:37:34.209Z,7.87
2023-01-04T18:42:42.226Z,8.20
2023-01-04T18:53:17.677Z,6.50
2023-01-04T18:58:49.145Z,7.00
2023-01-04T19:03:55.267Z,7.33
2023-01-04T19:09:14.911Z,7.77
2023-01-04T19:14:24.976Z,5.87
2023-01-04T19:19:31.104Z,6.43
2023-01-04T19:24:47.185Z,7.00
2023-01-04T19:29:56.769Z,5.80
2023-01-04T19:35:04.750Z,7.43
2023-01-04T19:40:12.968Z,7.43
2023-01-04T19:45:37.063Z,7.80
2023-01-04T19:50:45.549Z,8.73
2023-01-04T19:56:05.489Z,8.83
2023-01-04T20:01:40.368Z,8.27
2023-01-04T20:06:45.855Z,8.53
2023-01-04T20:12:02.165Z,8.67
2023-01-04T20:17:09.421Z,6.97
2023-01-04T20:22:54.138Z,8.13
2023-01-04T20:28:00.133Z,8.03
2023-01-04T20:33:07.087Z,6.97
2023-01-04T20:38:15.907Z,7.83
2023-01-04T20:43:46.551Z,7.03
2023-01-04T20:49:03.552Z,7.60
2023-01-04T20:54:08.642Z,7.33
2023-01-04T20:59:17.823Z,6.63
2023-01-04T21:04:29.769Z,5.70
2023-01-04T21:09:38.379Z,6.67
2023-01-04T21:14:43.799Z,6.43
2023-01-04T21:19:53.334Z,5.93
2023-01-04T21:24:59.333Z,5.93
2023-01-04T21:30:08.630Z,6.37
2023-01-04T21:35:14.648Z,7.67
2023-01-04T21:40:21.788Z,7.60
2023-01-04T21:45:27.796Z,6.23
2023-01-04T21:50:31.959Z,5.73
2023-01-04T21:55:39.192Z,5.97
2023-01-04T22:00:45.704Z,7.60
2023-01-04T22:05:52.138Z,5.70
2023-01-04T22:10:57.630Z,6.10
2023-01-04T22:16:05.673Z,4.47
2023-01-04T22:21:14.370Z,5.03
2023-01-04T22:26:18.663Z,5.33
2023-01-04T22:31:26.466Z,5.47
2023-01-04T22:36:30.291Z,5.20
2023-01-04T22:41:35.743Z,5.67
2023-01-04T22:46:47.188Z,4.97
2023-01-04T22:52:01.864Z,4.27
2023-01-04T22:57:05.817Z,5.13
2023-01-04T23:02:10.218Z,4.87
2023-01-04T23:07:14.306Z,2.93
2023-01-04T23:12:18.286Z,4.40
2023-01-04T23:17:22.272Z,3.73
2023-01-04T23:22:26.437Z,4.67
2023-01-04T23:27:32.620Z,3.97
2023-01-04T23:32:36.836Z,3.23
2023-01-04T23:37:40.304Z,2.40
2023-01-04T23:42:46.927Z,2.03
2023-01-04T23:47:52.204Z,1.70
2023-01-04T23:52:56.031Z,1.00
2023-01-04T23:58:00.218Z,0.80
